sensor_id;sensor_type;location;lat;lon;timestamp;temperature;humidity
21439;DHT22;10880;50.302;18.736;2022-08-11T00:01:50;21.90;45.40
21439;DHT22;10880;50.302;18.736;2022-08-11T00:04:20;21.90;45.60
21439;DHT22;10880;50.302;18.736;2022-08-11T00:06:50;21.80;45.50
21439;DHT22;10880;50.302;18.736;2022-08-11T00:09:23;21.80;45.60
21439;DHT22;10880;50.302;18.736;2022-08-11T00:11:59;21.80;46.30
21439;DHT22;10880;50.302;18.736;2022-08-11T00:14:30;21.80;45.70
21439;DHT22;10880;50.302;18.736;2022-08-11T00:17:07;21.70;45.70
21439;DHT22;10880;50.302;18.736;2022-08-11T00:19:41;21.70;45.90
21439;DHT22;10880;50.302;18.736;2022-08-11T00:22:11;21.70;45.90
21439;DHT22;10880;50.302;18.736;2022-08-11T00:24:39;21.60;45.70
21439;DHT22;10880;50.302;18.736;2022-08-11T00:27:06;21.60;45.70
21439;DHT22;10880;50.302;18.736;2022-08-11T00:29:33;21.60;45.60
21439;DHT22;10880;50.302;18.736;2022-08-11T00:32:03;21.60;45.60
21439;DHT22;10880;50.302;18.736;2022-08-11T00:34:37;21.50;46.00
21439;DHT22;10880;50.302;18.736;2022-08-11T00:37:10;21.50;46.10
21439;DHT22;10880;50.302;18.736;2022-08-11T00:39:47;21.50;46.20
21439;DHT22;10880;50.302;18.736;2022-08-11T00:42:44;21.40;46.20
21439;DHT22;10880;50.302;18.736;2022-08-11T00:45:31;21.40;46.40
21439;DHT22;10880;50.302;18.736;2022-08-11T00:48:35;21.40;46.30
21439;DHT22;10880;50.302;18.736;2022-08-11T01:05:30;21.20;46.40
21439;DHT22;10880;50.302;18.736;2022-08-11T01:22:00;21.10;46.70
21439;DHT22;10880;50.302;18.736;2022-08-11T01:38:40;20.90;46.60
21439;DHT22;10880;50.302;18.736;2022-08-11T01:45:02;20.80;47.20
21439;DHT22;10880;50.302;18.736;2022-08-11T01:47:53;20.80;47.20
21439;DHT22;10880;50.302;18.736;2022-08-11T02:04:46;20.70;47.50
21439;DHT22;10880;50.302;18.736;2022-08-11T02:07:32;20.70;47.40
21439;DHT22;10880;50.302;18.736;2022-08-11T02:16:07;20.70;47.60
21439;DHT22;10880;50.302;18.736;2022-08-11T02:18:38;20.60;47.60
21439;DHT22;10880;50.302;18.736;2022-08-11T02:21:58;20.60;47.40
21439;DHT22;10880;50.302;18.736;2022-08-11T02:25:02;20.60;47.50
21439;DHT22;10880;50.302;18.736;2022-08-11T02:27:52;20.60;47.60
21439;DHT22;10880;50.302;18.736;2022-08-11T02:30:24;20.60;47.70
21439;DHT22;10880;50.302;18.736;2022-08-11T02:33:14;20.50;47.80
21439;DHT22;10880;50.302;18.736;2022-08-11T02:36:11;20.50;47.80
21439;DHT22;10880;50.302;18.736;2022-08-11T02:50:24;20.50;47.70
21439;DHT22;10880;50.302;18.736;2022-08-11T02:52:56;20.50;47.90
21439;DHT22;10880;50.302;18.736;2022-08-11T02:58:08;20.40;47.70
21439;DHT22;10880;50.302;18.736;2022-08-11T03:00:54;20.40;47.90
21439;DHT22;10880;50.302;18.736;2022-08-11T03:03:47;20.40;48.10
21439;DHT22;10880;50.302;18.736;2022-08-11T03:06:31;20.40;48.00
21439;DHT22;10880;50.302;18.736;2022-08-11T03:12:17;20.30;48.00
21439;DHT22;10880;50.302;18.736;2022-08-11T03:15:17;20.30;48.00
21439;DHT22;10880;50.302;18.736;2022-08-11T03:18:44;20.30;48.10
21439;DHT22;10880;50.302;18.736;2022-08-11T03:21:28;20.20;48.20
21439;DHT22;10880;50.302;18.736;2022-08-11T03:24:05;20.20;48.20
21439;DHT22;10880;50.302;18.736;2022-08-11T03:27:26;20.20;48.20
21439;DHT22;10880;50.302;18.736;2022-08-11T03:42:09;20.20;48.50
21439;DHT22;10880;50.302;18.736;2022-08-11T03:50:29;20.10;48.50
21439;DHT22;10880;50.302;18.736;2022-08-11T03:53:15;20.10;48.40
21439;DHT22;10880;50.302;18.736;2022-08-11T03:59:13;20.10;48.70
21439;DHT22;10880;50.302;18.736;2022-08-11T04:13:01;20.10;48.30
21439;DHT22;10880;50.302;18.736;2022-08-11T04:35:13;19.90;49.20
21439;DHT22;10880;50.302;18.736;2022-08-11T04:37:55;20.10;49.50
21439;DHT22;10880;50.302;18.736;2022-08-11T04:40:48;20.10;49.30
21439;DHT22;10880;50.302;18.736;2022-08-11T04:56:24;20.30;49.80
21439;DHT22;10880;50.302;18.736;2022-08-11T04:58:56;20.30;49.70
21439;DHT22;10880;50.302;18.736;2022-08-11T05:05:02;20.40;49.60
21439;DHT22;10880;50.302;18.736;2022-08-11T05:10:52;20.50;49.40
21439;DHT22;10880;50.302;18.736;2022-08-11T05:16:30;20.60;49.80
21439;DHT22;10880;50.302;18.736;2022-08-11T05:19:19;20.60;49.80
21439;DHT22;10880;50.302;18.736;2022-08-11T05:22:10;20.70;49.80
21439;DHT22;10880;50.302;18.736;2022-08-11T05:25:05;20.70;49.90
21439;DHT22;10880;50.302;18.736;2022-08-11T05:28:11;20.80;50.00
21439;DHT22;10880;50.302;18.736;2022-08-11T05:31:02;20.80;50.00
21439;DHT22;10880;50.302;18.736;2022-08-11T05:34:10;20.90;50.00
21439;DHT22;10880;50.302;18.736;2022-08-11T05:37:12;21.00;50.20
21439;DHT22;10880;50.302;18.736;2022-08-11T05:39:51;21.00;50.10
21439;DHT22;10880;50.302;18.736;2022-08-11T05:42:42;21.10;50.10
21439;DHT22;10880;50.302;18.736;2022-08-11T05:45:36;21.10;50.10
21439;DHT22;10880;50.302;18.736;2022-08-11T05:48:21;21.20;50.10
21439;DHT22;10880;50.302;18.736;2022-08-11T05:51:06;21.20;50.00
21439;DHT22;10880;50.302;18.736;2022-08-11T05:53:55;21.30;50.10
21439;DHT22;10880;50.302;18.736;2022-08-11T05:56:43;21.30;50.20
21439;DHT22;10880;50.302;18.736;2022-08-11T05:59:15;21.40;50.20
21439;DHT22;10880;50.302;18.736;2022-08-11T06:01:42;21.40;50.20
21439;DHT22;10880;50.302;18.736;2022-08-11T06:07:04;21.60;50.20
21439;DHT22;10880;50.302;18.736;2022-08-11T06:09:36;21.60;50.60
21439;DHT22;10880;50.302;18.736;2022-08-11T06:12:09;21.60;50.30
21439;DHT22;10880;50.302;18.736;2022-08-11T06:14:44;21.70;50.50
21439;DHT22;10880;50.302;18.736;2022-08-11T06:17:12;21.70;50.20
21439;DHT22;10880;50.302;18.736;2022-08-11T06:19:46;21.80;50.40
21439;DHT22;10880;50.302;18.736;2022-08-11T06:22:19;21.90;50.50
21439;DHT22;10880;50.302;18.736;2022-08-11T06:24:56;21.90;50.60
21439;DHT22;10880;50.302;18.736;2022-08-11T06:27:31;22.00;50.60
21439;DHT22;10880;50.302;18.736;2022-08-11T06:29:58;22.10;50.60
21439;DHT22;10880;50.302;18.736;2022-08-11T06:32:33;22.10;50.50
21439;DHT22;10880;50.302;18.736;2022-08-11T06:35:20;22.00;50.70
21439;DHT22;10880;50.302;18.736;2022-08-11T06:38:07;22.30;50.90
21439;DHT22;10880;50.302;18.736;2022-08-11T06:40:41;22.40;50.70
21439;DHT22;10880;50.302;18.736;2022-08-11T06:43:20;22.50;50.70
21439;DHT22;10880;50.302;18.736;2022-08-11T06:46:00;22.60;50.70
21439;DHT22;10880;50.302;18.736;2022-08-11T06:48:30;22.70;50.70
21439;DHT22;10880;50.302;18.736;2022-08-11T06:51:03;22.80;50.50
21439;DHT22;10880;50.302;18.736;2022-08-11T06:53:50;22.80;50.60
21439;DHT22;10880;50.302;18.736;2022-08-11T06:56:26;22.90;50.60
21439;DHT22;10880;50.302;18.736;2022-08-11T06:59:13;23.00;50.60
21439;DHT22;10880;50.302;18.736;2022-08-11T07:02:30;23.10;50.50
21439;DHT22;10880;50.302;18.736;2022-08-11T07:05:00;23.20;50.80
21439;DHT22;10880;50.302;18.736;2022-08-11T07:14:01;23.50;50.70
21439;DHT22;10880;50.302;18.736;2022-08-11T07:16:49;23.60;50.60
21439;DHT22;10880;50.302;18.736;2022-08-11T07:19:23;23.80;50.60
21439;DHT22;10880;50.302;18.736;2022-08-11T07:22:10;23.80;50.60
21439;DHT22;10880;50.302;18.736;2022-08-11T07:25:05;23.90;50.50
21439;DHT22;10880;50.302;18.736;2022-08-11T07:27:59;24.10;50.60
21439;DHT22;10880;50.302;18.736;2022-08-11T07:30:45;24.20;50.40
21439;DHT22;10880;50.302;18.736;2022-08-11T07:33:13;24.30;50.30
21439;DHT22;10880;50.302;18.736;2022-08-11T07:35:49;24.40;50.30
21439;DHT22;10880;50.302;18.736;2022-08-11T07:38:22;24.50;50.30
21439;DHT22;10880;50.302;18.736;2022-08-11T07:40:50;24.60;50.20
21439;DHT22;10880;50.302;18.736;2022-08-11T07:43:19;24.70;50.40
21439;DHT22;10880;50.302;18.736;2022-08-11T07:45:46;24.80;49.60
21439;DHT22;10880;50.302;18.736;2022-08-11T07:48:32;24.90;49.80
21439;DHT22;10880;50.302;18.736;2022-08-11T07:51:21;25.00;49.80
21439;DHT22;10880;50.302;18.736;2022-08-11T07:54:07;25.10;49.60
21439;DHT22;10880;50.302;18.736;2022-08-11T07:56:36;25.30;49.70
21439;DHT22;10880;50.302;18.736;2022-08-11T07:59:04;25.30;49.50
21439;DHT22;10880;50.302;18.736;2022-08-11T08:01:50;25.40;49.40
21439;DHT22;10880;50.302;18.736;2022-08-11T08:04:35;25.50;49.30
21439;DHT22;10880;50.302;18.736;2022-08-11T08:07:23;25.60;49.10
21439;DHT22;10880;50.302;18.736;2022-08-11T08:10:09;25.70;49.00
21439;DHT22;10880;50.302;18.736;2022-08-11T08:12:55;25.70;48.90
21439;DHT22;10880;50.302;18.736;2022-08-11T08:15:41;25.80;48.70
21439;DHT22;10880;50.302;18.736;2022-08-11T08:18:27;25.80;48.60
21439;DHT22;10880;50.302;18.736;2022-08-11T08:20:55;25.90;48.60
21439;DHT22;10880;50.302;18.736;2022-08-11T08:23:44;25.90;48.40
21439;DHT22;10880;50.302;18.736;2022-08-11T08:26:14;26.00;48.40
21439;DHT22;10880;50.302;18.736;2022-08-11T08:29:01;26.00;48.50
21439;DHT22;10880;50.302;18.736;2022-08-11T08:31:48;26.10;48.50
21439;DHT22;10880;50.302;18.736;2022-08-11T08:34:15;26.20;48.20
21439;DHT22;10880;50.302;18.736;2022-08-11T08:36:45;26.20;48.40
21439;DHT22;10880;50.302;18.736;2022-08-11T08:39:13;26.20;48.20
21439;DHT22;10880;50.302;18.736;2022-08-11T08:41:45;26.30;48.00
21439;DHT22;10880;50.302;18.736;2022-08-11T08:44:17;26.30;48.00
21439;DHT22;10880;50.302;18.736;2022-08-11T08:46:48;26.40;47.80
21439;DHT22;10880;50.302;18.736;2022-08-11T08:49:24;26.40;47.70
21439;DHT22;10880;50.302;18.736;2022-08-11T08:52:00;26.50;47.50
21439;DHT22;10880;50.302;18.736;2022-08-11T08:54:36;26.50;47.50
21439;DHT22;10880;50.302;18.736;2022-08-11T08:57:08;26.50;46.90
21439;DHT22;10880;50.302;18.736;2022-08-11T08:59:40;26.60;47.20
21439;DHT22;10880;50.302;18.736;2022-08-11T09:02:08;26.50;47.20
21439;DHT22;10880;50.302;18.736;2022-08-11T09:04:45;26.60;46.90
21439;DHT22;10880;50.302;18.736;2022-08-11T09:07:16;26.60;47.20
21439;DHT22;10880;50.302;18.736;2022-08-11T09:09:48;26.70;47.30
21439;DHT22;10880;50.302;18.736;2022-08-11T09:12:19;26.70;47.20
21439;DHT22;10880;50.302;18.736;2022-08-11T09:14:49;26.70;47.10
21439;DHT22;10880;50.302;18.736;2022-08-11T09:17:48;26.80;47.10
21439;DHT22;10880;50.302;18.736;2022-08-11T09:20:23;26.80;46.90
21439;DHT22;10880;50.302;18.736;2022-08-11T09:23:01;26.90;47.00
21439;DHT22;10880;50.302;18.736;2022-08-11T09:25:47;26.90;47.10
21439;DHT22;10880;50.302;18.736;2022-08-11T09:28:33;26.90;46.80
21439;DHT22;10880;50.302;18.736;2022-08-11T09:31:04;27.00;46.90
21439;DHT22;10880;50.302;18.736;2022-08-11T09:33:32;27.00;46.80
21439;DHT22;10880;50.302;18.736;2022-08-11T09:36:00;27.10;46.80
21439;DHT22;10880;50.302;18.736;2022-08-11T09:38:47;27.10;46.50
21439;DHT22;10880;50.302;18.736;2022-08-11T09:41:34;27.20;46.60
21439;DHT22;10880;50.302;18.736;2022-08-11T09:44:02;27.20;46.40
21439;DHT22;10880;50.302;18.736;2022-08-11T09:46:49;27.30;46.30
21439;DHT22;10880;50.302;18.736;2022-08-11T09:49:19;27.30;46.30
21439;DHT22;10880;50.302;18.736;2022-08-11T09:52:06;27.30;46.10
21439;DHT22;10880;50.302;18.736;2022-08-11T09:54:36;27.40;45.80
21439;DHT22;10880;50.302;18.736;2022-08-11T09:57:04;27.40;45.70
21439;DHT22;10880;50.302;18.736;2022-08-11T09:59:51;27.40;45.60
21439;DHT22;10880;50.302;18.736;2022-08-11T10:02:25;27.50;45.70
21439;DHT22;10880;50.302;18.736;2022-08-11T10:04:55;27.50;45.50
21439;DHT22;10880;50.302;18.736;2022-08-11T10:07:45;27.60;45.60
21439;DHT22;10880;50.302;18.736;2022-08-11T10:10:18;27.60;45.50
21439;DHT22;10880;50.302;18.736;2022-08-11T10:12:54;27.70;45.60
21439;DHT22;10880;50.302;18.736;2022-08-11T10:15:22;27.70;45.40
21439;DHT22;10880;50.302;18.736;2022-08-11T10:18:09;27.80;45.40
21439;DHT22;10880;50.302;18.736;2022-08-11T10:21:00;27.80;45.20
21439;DHT22;10880;50.302;18.736;2022-08-11T10:23:31;27.90;45.00
21439;DHT22;10880;50.302;18.736;2022-08-11T10:26:19;28.00;44.80
21439;DHT22;10880;50.302;18.736;2022-08-11T10:29:05;28.00;44.60
21439;DHT22;10880;50.302;18.736;2022-08-11T10:31:54;28.00;44.50
21439;DHT22;10880;50.302;18.736;2022-08-11T10:34:47;28.10;44.40
21439;DHT22;10880;50.302;18.736;2022-08-11T10:37:15;28.10;44.40
21439;DHT22;10880;50.302;18.736;2022-08-11T10:39:45;28.10;44.40
21439;DHT22;10880;50.302;18.736;2022-08-11T10:42:13;28.20;44.30
21439;DHT22;10880;50.302;18.736;2022-08-11T10:45:00;28.20;44.20
21439;DHT22;10880;50.302;18.736;2022-08-11T10:47:28;28.20;44.10
21439;DHT22;10880;50.302;18.736;2022-08-11T10:50:11;28.30;44.00
21439;DHT22;10880;50.302;18.736;2022-08-11T10:52:58;28.30;44.00
21439;DHT22;10880;50.302;18.736;2022-08-11T10:55:44;28.30;43.70
21439;DHT22;10880;50.302;18.736;2022-08-11T10:58:30;28.30;43.60
21439;DHT22;10880;50.302;18.736;2022-08-11T11:01:22;28.40;43.60
21439;DHT22;10880;50.302;18.736;2022-08-11T11:03:55;28.40;43.40
21439;DHT22;10880;50.302;18.736;2022-08-11T11:09:10;28.40;42.60
21439;DHT22;10880;50.302;18.736;2022-08-11T11:11:48;28.40;43.10
21439;DHT22;10880;50.302;18.736;2022-08-11T11:14:35;28.40;42.90
21439;DHT22;10880;50.302;18.736;2022-08-11T11:17:42;28.40;42.90
21439;DHT22;10880;50.302;18.736;2022-08-11T11:20:28;28.50;42.50
21439;DHT22;10880;50.302;18.736;2022-08-11T11:25:57;28.50;42.70
21439;DHT22;10880;50.302;18.736;2022-08-11T11:37:14;28.50;42.30
21439;DHT22;10880;50.302;18.736;2022-08-11T11:39:44;28.50;42.40
21439;DHT22;10880;50.302;18.736;2022-08-11T11:42:11;28.60;42.40
21439;DHT22;10880;50.302;18.736;2022-08-11T11:44:40;28.60;42.30
21439;DHT22;10880;50.302;18.736;2022-08-11T11:47:10;28.60;42.20
21439;DHT22;10880;50.302;18.736;2022-08-11T11:49:37;28.60;42.00
21439;DHT22;10880;50.302;18.736;2022-08-11T11:52:14;28.60;41.90
21439;DHT22;10880;50.302;18.736;2022-08-11T11:54:45;28.60;41.80
21439;DHT22;10880;50.302;18.736;2022-08-11T11:57:17;28.60;41.80
21439;DHT22;10880;50.302;18.736;2022-08-11T12:00:09;28.60;41.70
21439;DHT22;10880;50.302;18.736;2022-08-11T12:03:03;28.60;41.60
21439;DHT22;10880;50.302;18.736;2022-08-11T12:05:33;28.60;41.60
21439;DHT22;10880;50.302;18.736;2022-08-11T12:08:02;28.60;41.60
21439;DHT22;10880;50.302;18.736;2022-08-11T12:10:53;28.60;41.70
21439;DHT22;10880;50.302;18.736;2022-08-11T12:13:50;28.60;41.60
21439;DHT22;10880;50.302;18.736;2022-08-11T12:16:19;28.60;41.60
21439;DHT22;10880;50.302;18.736;2022-08-11T12:18:58;28.60;41.70
21439;DHT22;10880;50.302;18.736;2022-08-11T12:21:29;28.60;41.60
21439;DHT22;10880;50.302;18.736;2022-08-11T12:23:59;28.60;41.50
21439;DHT22;10880;50.302;18.736;2022-08-11T12:26:44;28.60;41.50
21439;DHT22;10880;50.302;18.736;2022-08-11T12:29:19;28.60;41.40
21439;DHT22;10880;50.302;18.736;2022-08-11T12:31:48;28.60;41.20
21439;DHT22;10880;50.302;18.736;2022-08-11T12:34:16;28.60;41.10
21439;DHT22;10880;50.302;18.736;2022-08-11T12:36:48;28.60;41.30
21439;DHT22;10880;50.302;18.736;2022-08-11T12:39:22;28.60;41.20
21439;DHT22;10880;50.302;18.736;2022-08-11T12:42:10;28.60;41.30
21439;DHT22;10880;50.302;18.736;2022-08-11T12:44:58;28.60;41.10
21439;DHT22;10880;50.302;18.736;2022-08-11T12:48:07;28.60;41.10
21439;DHT22;10880;50.302;18.736;2022-08-11T12:51:01;28.60;41.00
21439;DHT22;10880;50.302;18.736;2022-08-11T12:53:57;28.60;41.10
21439;DHT22;10880;50.302;18.736;2022-08-11T12:56:31;28.70;41.10
21439;DHT22;10880;50.302;18.736;2022-08-11T12:59:23;28.70;41.20
21439;DHT22;10880;50.302;18.736;2022-08-11T13:02:16;28.70;41.10
21439;DHT22;10880;50.302;18.736;2022-08-11T13:05:03;28.70;40.90
21439;DHT22;10880;50.302;18.736;2022-08-11T13:07:36;28.70;40.90
21439;DHT22;10880;50.302;18.736;2022-08-11T13:10:08;28.70;40.80
21439;DHT22;10880;50.302;18.736;2022-08-11T13:12:36;28.70;40.80
21439;DHT22;10880;50.302;18.736;2022-08-11T13:15:19;28.70;40.70
21439;DHT22;10880;50.302;18.736;2022-08-11T13:17:52;28.80;40.80
21439;DHT22;10880;50.302;18.736;2022-08-11T13:20:24;28.70;40.50
21439;DHT22;10880;50.302;18.736;2022-08-11T13:22:55;28.70;40.50
21439;DHT22;10880;50.302;18.736;2022-08-11T13:25:26;28.70;40.50
21439;DHT22;10880;50.302;18.736;2022-08-11T13:27:59;28.70;40.50
21439;DHT22;10880;50.302;18.736;2022-08-11T13:30:34;28.70;40.50
21439;DHT22;10880;50.302;18.736;2022-08-11T13:33:19;28.70;40.40
21439;DHT22;10880;50.302;18.736;2022-08-11T13:35:51;28.70;40.50
21439;DHT22;10880;50.302;18.736;2022-08-11T13:38:19;28.70;40.50
21439;DHT22;10880;50.302;18.736;2022-08-11T13:40:48;28.70;40.40
21439;DHT22;10880;50.302;18.736;2022-08-11T13:43:19;28.70;40.20
21439;DHT22;10880;50.302;18.736;2022-08-11T13:45:47;28.70;40.40
21439;DHT22;10880;50.302;18.736;2022-08-11T13:48:15;28.70;40.30
21439;DHT22;10880;50.302;18.736;2022-08-11T13:50:43;28.70;40.20
21439;DHT22;10880;50.302;18.736;2022-08-11T13:53:30;28.70;40.30
21439;DHT22;10880;50.302;18.736;2022-08-11T13:56:02;28.70;40.30
21439;DHT22;10880;50.302;18.736;2022-08-11T13:58:28;28.80;40.10
21439;DHT22;10880;50.302;18.736;2022-08-11T14:00:59;28.80;40.30
21439;DHT22;10880;50.302;18.736;2022-08-11T14:03:27;28.80;40.10
21439;DHT22;10880;50.302;18.736;2022-08-11T14:06:00;28.80;40.10
21439;DHT22;10880;50.302;18.736;2022-08-11T14:08:35;28.80;39.90
21439;DHT22;10880;50.302;18.736;2022-08-11T14:11:05;28.80;39.90
21439;DHT22;10880;50.302;18.736;2022-08-11T14:13:52;28.80;39.90
21439;DHT22;10880;50.302;18.736;2022-08-11T14:16:30;28.80;39.60
21439;DHT22;10880;50.302;18.736;2022-08-11T14:19:04;28.80;39.80
21439;DHT22;10880;50.302;18.736;2022-08-11T14:21:43;28.80;39.70
21439;DHT22;10880;50.302;18.736;2022-08-11T14:24:28;28.80;39.80
21439;DHT22;10880;50.302;18.736;2022-08-11T14:27:00;28.80;39.60
21439;DHT22;10880;50.302;18.736;2022-08-11T14:29:29;28.80;39.60
21439;DHT22;10880;50.302;18.736;2022-08-11T14:32:02;28.80;39.20
21439;DHT22;10880;50.302;18.736;2022-08-11T14:34:34;28.80;39.60
21439;DHT22;10880;50.302;18.736;2022-08-11T14:37:14;28.70;39.90
21439;DHT22;10880;50.302;18.736;2022-08-11T14:39:56;28.60;40.50
21439;DHT22;10880;50.302;18.736;2022-08-11T14:42:49;28.50;40.80
21439;DHT22;10880;50.302;18.736;2022-08-11T14:45:36;28.40;40.70
21439;DHT22;10880;50.302;18.736;2022-08-11T14:48:23;28.20;41.00
21439;DHT22;10880;50.302;18.736;2022-08-11T14:50:50;28.10;40.70
21439;DHT22;10880;50.302;18.736;2022-08-11T14:53:20;28.00;41.30
21439;DHT22;10880;50.302;18.736;2022-08-11T14:55:52;27.80;41.30
21439;DHT22;10880;50.302;18.736;2022-08-11T14:58:41;27.70;41.20
21439;DHT22;10880;50.302;18.736;2022-08-11T15:01:12;27.50;41.30
21439;DHT22;10880;50.302;18.736;2022-08-11T15:03:59;27.40;42.00
21439;DHT22;10880;50.302;18.736;2022-08-11T15:06:27;27.20;42.00
21439;DHT22;10880;50.302;18.736;2022-08-11T15:08:54;27.20;42.40
21439;DHT22;10880;50.302;18.736;2022-08-11T15:11:24;27.00;42.50
21439;DHT22;10880;50.302;18.736;2022-08-11T15:14:15;26.90;42.80
21439;DHT22;10880;50.302;18.736;2022-08-11T15:17:05;26.80;42.90
21439;DHT22;10880;50.302;18.736;2022-08-11T15:19:40;26.80;43.10
21439;DHT22;10880;50.302;18.736;2022-08-11T15:22:30;26.70;43.40
21439;DHT22;10880;50.302;18.736;2022-08-11T15:25:18;26.60;43.40
21439;DHT22;10880;50.302;18.736;2022-08-11T15:27:54;26.50;43.80
21439;DHT22;10880;50.302;18.736;2022-08-11T15:30:40;26.50;44.10
21439;DHT22;10880;50.302;18.736;2022-08-11T15:33:29;26.40;44.20
21439;DHT22;10880;50.302;18.736;2022-08-11T15:36:22;26.30;44.50
21439;DHT22;10880;50.302;18.736;2022-08-11T15:39:35;26.20;44.70
21439;DHT22;10880;50.302;18.736;2022-08-11T15:42:31;26.20;45.40
21439;DHT22;10880;50.302;18.736;2022-08-11T15:45:21;26.10;45.30
21439;DHT22;10880;50.302;18.736;2022-08-11T15:48:09;26.00;45.50
21439;DHT22;10880;50.302;18.736;2022-08-11T15:50:41;25.90;45.80
21439;DHT22;10880;50.302;18.736;2022-08-11T15:53:33;25.90;45.80
21439;DHT22;10880;50.302;18.736;2022-08-11T15:56:06;25.90;46.40
21439;DHT22;10880;50.302;18.736;2022-08-11T15:58:42;25.80;46.10
21439;DHT22;10880;50.302;18.736;2022-08-11T16:01:29;25.80;46.60
21439;DHT22;10880;50.302;18.736;2022-08-11T16:04:23;25.80;47.20
21439;DHT22;10880;50.302;18.736;2022-08-11T16:07:22;25.80;46.80
21439;DHT22;10880;50.302;18.736;2022-08-11T16:10:10;25.70;47.10
21439;DHT22;10880;50.302;18.736;2022-08-11T16:12:42;25.70;47.20
21439;DHT22;10880;50.302;18.736;2022-08-11T16:15:34;25.70;47.00
21439;DHT22;10880;50.302;18.736;2022-08-11T16:18:25;25.60;47.00
21439;DHT22;10880;50.302;18.736;2022-08-11T16:21:21;25.60;47.20
21439;DHT22;10880;50.302;18.736;2022-08-11T16:23:51;25.60;47.30
21439;DHT22;10880;50.302;18.736;2022-08-11T16:26:23;25.60;47.20
21439;DHT22;10880;50.302;18.736;2022-08-11T16:28:53;25.60;47.40
21439;DHT22;10880;50.302;18.736;2022-08-11T16:31:23;25.50;47.50
21439;DHT22;10880;50.302;18.736;2022-08-11T16:33:52;25.50;47.60
21439;DHT22;10880;50.302;18.736;2022-08-11T16:36:22;25.50;47.70
21439;DHT22;10880;50.302;18.736;2022-08-11T16:39:09;25.50;47.90
21439;DHT22;10880;50.302;18.736;2022-08-11T16:41:39;25.50;47.90
21439;DHT22;10880;50.302;18.736;2022-08-11T16:44:28;25.40;48.00
21439;DHT22;10880;50.302;18.736;2022-08-11T16:47:17;25.40;48.00
21439;DHT22;10880;50.302;18.736;2022-08-11T16:49:52;25.40;48.20
21439;DHT22;10880;50.302;18.736;2022-08-11T16:52:23;25.40;48.20
21439;DHT22;10880;50.302;18.736;2022-08-11T16:54:51;25.30;47.90
21439;DHT22;10880;50.302;18.736;2022-08-11T16:57:24;25.30;48.00
21439;DHT22;10880;50.302;18.736;2022-08-11T17:00:12;25.30;48.40
21439;DHT22;10880;50.302;18.736;2022-08-11T17:02:50;25.30;48.30
21439;DHT22;10880;50.302;18.736;2022-08-11T17:05:53;25.30;48.60
21439;DHT22;10880;50.302;18.736;2022-08-11T17:08:51;25.30;48.30
21439;DHT22;10880;50.302;18.736;2022-08-11T17:11:45;25.30;48.70
21439;DHT22;10880;50.302;18.736;2022-08-11T17:14:59;25.30;48.70
21439;DHT22;10880;50.302;18.736;2022-08-11T17:17:35;25.30;48.90
21439;DHT22;10880;50.302;18.736;2022-08-11T17:20:06;25.30;48.80
21439;DHT22;10880;50.302;18.736;2022-08-11T17:22:37;25.30;48.80
21439;DHT22;10880;50.302;18.736;2022-08-11T17:25:27;25.20;48.70
21439;DHT22;10880;50.302;18.736;2022-08-11T17:27:58;25.20;48.80
21439;DHT22;10880;50.302;18.736;2022-08-11T17:30:28;25.20;48.80
21439;DHT22;10880;50.302;18.736;2022-08-11T17:33:18;25.20;48.90
21439;DHT22;10880;50.302;18.736;2022-08-11T17:36:06;25.20;49.10
21439;DHT22;10880;50.302;18.736;2022-08-11T17:38:33;25.20;49.10
21439;DHT22;10880;50.302;18.736;2022-08-11T17:41:04;25.20;49.10
21439;DHT22;10880;50.302;18.736;2022-08-11T17:43:49;25.20;49.10
21439;DHT22;10880;50.302;18.736;2022-08-11T17:46:38;25.10;49.20
21439;DHT22;10880;50.302;18.736;2022-08-11T17:49:26;25.10;49.10
21439;DHT22;10880;50.302;18.736;2022-08-11T17:51:56;25.10;49.40
21439;DHT22;10880;50.302;18.736;2022-08-11T17:54:41;25.10;49.20
21439;DHT22;10880;50.302;18.736;2022-08-11T17:57:28;25.10;49.40
21439;DHT22;10880;50.302;18.736;2022-08-11T18:00:14;25.10;49.50
21439;DHT22;10880;50.302;18.736;2022-08-11T18:02:44;24.70;49.40
21439;DHT22;10880;50.302;18.736;2022-08-11T18:05:33;25.00;49.40
21439;DHT22;10880;50.302;18.736;2022-08-11T18:08:07;25.00;49.70
21439;DHT22;10880;50.302;18.736;2022-08-11T18:10:54;25.00;49.90
21439;DHT22;10880;50.302;18.736;2022-08-11T18:13:41;25.00;49.90
21439;DHT22;10880;50.302;18.736;2022-08-11T18:16:27;24.90;49.90
21439;DHT22;10880;50.302;18.736;2022-08-11T18:19:13;24.90;49.80
21439;DHT22;10880;50.302;18.736;2022-08-11T18:22:12;24.90;50.00
21439;DHT22;10880;50.302;18.736;2022-08-11T18:25:09;24.90;50.30
21439;DHT22;10880;50.302;18.736;2022-08-11T18:27:55;24.90;50.30
21439;DHT22;10880;50.302;18.736;2022-08-11T18:30:43;24.80;50.00
21439;DHT22;10880;50.302;18.736;2022-08-11T18:33:36;24.70;50.30
21439;DHT22;10880;50.302;18.736;2022-08-11T18:36:26;24.70;50.30
21439;DHT22;10880;50.302;18.736;2022-08-11T18:39:13;24.70;50.50
21439;DHT22;10880;50.302;18.736;2022-08-11T18:42:03;24.60;50.40
21439;DHT22;10880;50.302;18.736;2022-08-11T18:44:50;24.60;50.50
21439;DHT22;10880;50.302;18.736;2022-08-11T18:47:36;24.50;50.50
21439;DHT22;10880;50.302;18.736;2022-08-11T18:50:24;24.50;50.60
21439;DHT22;10880;50.302;18.736;2022-08-11T18:53:13;24.50;50.70
21439;DHT22;10880;50.302;18.736;2022-08-11T18:56:01;24.40;50.80
21439;DHT22;10880;50.302;18.736;2022-08-11T18:58:47;24.40;50.80
21439;DHT22;10880;50.302;18.736;2022-08-11T19:01:35;24.30;50.70
21439;DHT22;10880;50.302;18.736;2022-08-11T19:04:22;24.30;50.90
21439;DHT22;10880;50.302;18.736;2022-08-11T19:07:12;24.30;50.90
21439;DHT22;10880;50.302;18.736;2022-08-11T19:09:59;24.20;50.90
21439;DHT22;10880;50.302;18.736;2022-08-11T19:12:45;24.20;50.90
21439;DHT22;10880;50.302;18.736;2022-08-11T19:15:34;24.10;51.10
21439;DHT22;10880;50.302;18.736;2022-08-11T19:18:22;24.10;50.90
21439;DHT22;10880;50.302;18.736;2022-08-11T19:21:10;24.10;51.10
21439;DHT22;10880;50.302;18.736;2022-08-11T19:24:02;24.10;51.20
21439;DHT22;10880;50.302;18.736;2022-08-11T19:26:49;24.10;51.00
21439;DHT22;10880;50.302;18.736;2022-08-11T19:29:41;24.10;51.30
21439;DHT22;10880;50.302;18.736;2022-08-11T19:32:30;24.00;51.30
21439;DHT22;10880;50.302;18.736;2022-08-11T19:35:17;24.00;51.40
21439;DHT22;10880;50.302;18.736;2022-08-11T19:38:03;24.00;51.40
21439;DHT22;10880;50.302;18.736;2022-08-11T19:40:49;24.00;51.30